Time;durP1;ratioP1;P1;durP2;ratioP2;P2;SDS_P1;SDS_P2;PMS_P1;PMS_P2;Temp;Humidity;BMP_temperature;BMP_pressure;BME280_temperature;BME280_humidity;BME280_pressure;Samples;Min_cycle;Max_cycle;Signal;HPM_P1;HPM_P2
2022/05/28 00:01:31;;;;;;;15.32;9.25;;;;;;;;;;7334255;19;153889;-18
2022/05/28 00:04:04;;;;;;;17.30;9.07;;;;;;;;;;7334009;19;161824;-18
2022/05/28 00:06:37;;;;;;;19.70;9.77;;;;;;;;;;7333553;19;162307;-17
2022/05/28 00:09:09;;;;;;;17.55;9.68;;;;;;;;;;7334063;19;154043;-17
2022/05/28 00:11:44;;;;;;;18.23;9.52;;;;;;;;;;7333592;19;153316;-17
2022/05/28 00:14:15;;;;;;;16.10;9.23;;;;;;;;;;7328792;19;161885;-17
2022/05/28 00:16:47;;;;;;;18.92;9.05;;;;;;;;;;7330010;19;162252;-17
2022/05/28 00:19:19;;;;;;;21.80;10.02;;;;;;;;;;7330672;19;154061;-17
2022/05/28 00:21:50;;;;;;;15.35;9.02;;;;;;;;;;7330034;19;153748;-17
2022/05/28 00:24:22;;;;;;;15.40;8.77;;;;;;;;;;7329588;19;162007;-17
2022/05/28 00:26:55;;;;;;;15.50;8.55;;;;;;;;;;7330405;19;162674;-17
2022/05/28 00:29:27;;;;;;;15.10;8.68;;;;;;;;;;7329679;19;154128;-17
2022/05/28 00:31:58;;;;;;;14.43;8.25;;;;;;;;;;7334900;19;153574;-17
2022/05/28 00:34:30;;;;;;;15.50;8.68;;;;;;;;;;7330490;19;162048;-17
2022/05/28 00:37:01;;;;;;;14.02;7.95;;;;;;;;;;7326910;19;162583;-17
2022/05/28 00:39:32;;;;;;;13.35;7.78;;;;;;;;;;7328093;19;154040;-17
2022/05/28 00:42:07;;;;;;;15.05;8.63;;;;;;;;;;7330111;19;153799;-17
2022/05/28 00:44:39;;;;;;;16.48;8.00;;;;;;;;;;7329695;19;161885;-17
2022/05/28 00:47:11;;;;;;;10.60;7.07;;;;;;;;;;7327541;19;162597;-17
2022/05/28 00:49:43;;;;;;;15.63;7.93;;;;;;;;;;7329822;19;154026;-17
2022/05/28 00:52:16;;;;;;;13.25;7.65;;;;;;;;;;7329783;19;153554;-17
2022/05/28 00:54:48;;;;;;;;;;;;;;;;;;7330024;19;162090;-17
2022/05/28 00:57:23;;;;;;;14.43;8.25;;;;;;;;;;7329824;19;162677;-17
2022/05/28 00:59:54;;;;;;;11.43;6.85;;;;;;;;;;7329145;19;154125;-17
2022/05/28 01:02:35;;;;;;;12.45;7.40;;;;;;;;;;7328680;19;153619;-16
2022/05/28 01:05:14;;;;;;;16.58;7.90;;;;;;;;;;7328406;19;161839;-18
2022/05/28 01:07:55;;;;;;;14.45;7.38;;;;;;;;;;7329315;19;162279;-18
2022/05/28 01:10:33;;;;;;;15.18;7.90;;;;;;;;;;7329780;19;154026;-18
2022/05/28 01:13:11;;;;;;;11.02;5.70;;;;;;;;;;7159049;19;3298321;-18
2022/05/28 01:15:46;;;;;;;8.25;4.13;;;;;;;;;;7330624;19;162202;-18
2022/05/28 01:18:23;;;;;;;8.43;4.50;;;;;;;;;;7331358;19;162483;-18
2022/05/28 01:20:57;;;;;;;6.90;4.70;;;;;;;;;;7330568;19;154107;-18
2022/05/28 01:23:47;;;;;;;6.30;4.18;;;;;;;;;;7333214;19;153610;-23
2022/05/28 01:26:25;;;;;;;9.93;4.93;;;;;;;;;;7330325;19;161874;-18
2022/05/28 01:29:04;;;;;;;10.27;5.07;;;;;;;;;;7334575;19;162587;-18
2022/05/28 01:31:37;;;;;;;9.27;4.20;;;;;;;;;;7333246;19;154047;-18
2022/05/28 01:34:10;;;;;;;12.20;4.60;;;;;;;;;;7334779;19;153815;-18
2022/05/28 01:36:42;;;;;;;6.90;4.47;;;;;;;;;;7332837;19;161579;-18
2022/05/28 01:39:22;;;;;;;7.47;4.75;;;;;;;;;;7334770;19;162649;-18
2022/05/28 01:41:55;;;;;;;7.00;4.32;;;;;;;;;;7332413;19;153983;-19
2022/05/28 01:44:30;;;;;;;6.63;4.32;;;;;;;;;;7335093;19;153604;-18
2022/05/28 01:47:02;;;;;;;8.52;4.60;;;;;;;;;;7334601;19;161935;-19
2022/05/28 01:49:36;;;;;;;6.45;4.28;;;;;;;;;;7334245;19;162859;-19
2022/05/28 01:52:09;;;;;;;8.00;4.45;;;;;;;;;;7335173;19;154244;-18
2022/05/28 01:54:44;;;;;;;6.65;4.50;;;;;;;;;;7334405;19;153575;-18
2022/05/28 01:57:16;;;;;;;9.05;5.03;;;;;;;;;;7333882;19;161860;-18
2022/05/28 01:59:50;;;;;;;7.40;4.35;;;;;;;;;;7333697;19;162403;-18
2022/05/28 02:02:22;;;;;;;7.00;4.10;;;;;;;;;;7334659;19;154330;-18
2022/05/28 02:04:54;;;;;;;7.07;4.30;;;;;;;;;;7334056;19;153873;-20
2022/05/28 02:07:25;;;;;;;6.05;4.28;;;;;;;;;;7333586;19;161832;-18
2022/05/28 02:10:00;;;;;;;7.28;4.82;;;;;;;;;;7333960;19;162322;-18
2022/05/28 02:12:34;;;;;;;6.55;4.28;;;;;;;;;;7332926;19;154097;-17
2022/05/28 02:15:19;;;;;;;9.02;5.35;;;;;;;;;;7333517;19;153533;-19
2022/05/28 02:17:53;;;;;;;7.32;4.55;;;;;;;;;;7333695;19;161961;-18
2022/05/28 02:20:34;;;;;;;7.43;4.05;;;;;;;;;;7332836;19;162340;-18
2022/05/28 02:23:25;;;;;;;8.35;4.28;;;;;;;;;;7333088;19;153880;-18
2022/05/28 02:26:03;;;;;;;8.18;4.03;;;;;;;;;;7333971;19;153589;-18
2022/05/28 02:28:36;;;;;;;6.68;4.20;;;;;;;;;;7333354;19;161932;-17
2022/05/28 02:31:18;;;;;;;7.53;4.60;;;;;;;;;;7332699;19;162448;-18
2022/05/28 02:33:50;;;;;;;7.40;4.53;;;;;;;;;;7333069;19;153994;-18
2022/05/28 02:36:22;;;;;;;6.57;4.32;;;;;;;;;;7332630;19;153563;-17
2022/05/28 02:38:53;;;;;;;6.40;4.10;;;;;;;;;;7332665;19;162116;-18
2022/05/28 02:41:26;;;;;;;6.65;4.25;;;;;;;;;;7330897;19;162281;-18
2022/05/28 02:43:57;;;;;;;6.20;3.92;;;;;;;;;;7332962;19;154005;-17
2022/05/28 02:46:31;;;;;;;5.78;3.90;;;;;;;;;;7331403;19;153642;-18
2022/05/28 02:49:03;;;;;;;6.97;4.07;;;;;;;;;;7332345;19;162040;-17
2022/05/28 02:51:34;;;;;;;6.47;4.55;;;;;;;;;;7332524;19;162390;-17
2022/05/28 02:54:06;;;;;;;5.68;4.10;;;;;;;;;;7332429;19;154174;-17
2022/05/28 02:56:37;;;;;;;6.13;3.78;;;;;;;;;;7333037;19;153586;-17
2022/05/28 02:59:08;;;;;;;5.40;3.88;;;;;;;;;;7329280;19;161843;-17
2022/05/28 03:01:42;;;;;;;5.85;3.70;;;;;;;;;;7326495;19;162573;-18
2022/05/28 03:04:13;;;;;;;7.53;4.22;;;;;;;;;;7329489;19;154101;-18
2022/05/28 03:06:45;;;;;;;5.72;4.13;;;;;;;;;;7329093;19;153700;-17
2022/05/28 03:09:18;;;;;;;5.25;3.78;;;;;;;;;;7328862;19;161754;-17
2022/05/28 03:11:50;;;;;;;5.78;3.92;;;;;;;;;;7328863;19;162879;-17
2022/05/28 03:14:21;;;;;;;5.87;4.33;;;;;;;;;;7326261;19;154020;-18
2022/05/28 03:16:55;;;;;;;4.75;4.00;;;;;;;;;;7328805;19;153671;-17
2022/05/28 03:19:26;;;;;;;6.65;4.15;;;;;;;;;;7328431;19;161614;-17
2022/05/28 03:21:58;;;;;;;4.90;3.90;;;;;;;;;;7331171;19;162766;-18
2022/05/28 03:24:29;;;;;;;5.15;3.60;;;;;;;;;;7328728;19;154257;-17
2022/05/28 03:27:00;;;;;;;6.72;3.92;;;;;;;;;;7327354;19;153548;-17
2022/05/28 03:29:32;;;;;;;6.47;3.80;;;;;;;;;;7328119;19;162061;-17
2022/05/28 03:32:06;;;;;;;4.82;3.70;;;;;;;;;;7328040;19;162550;-17
2022/05/28 03:34:37;;;;;;;5.35;3.60;;;;;;;;;;7327060;19;154071;-17
2022/05/28 03:37:09;;;;;;;6.32;3.80;;;;;;;;;;7328290;19;153874;-17
2022/05/28 03:39:40;;;;;;;5.93;3.80;;;;;;;;;;7327680;19;161822;-17
2022/05/28 03:42:11;;;;;;;4.97;3.30;;;;;;;;;;7326271;19;162562;-17
2022/05/28 03:44:43;;;;;;;5.75;3.72;;;;;;;;;;7327928;19;154097;-17
2022/05/28 03:47:17;;;;;;;5.00;4.00;;;;;;;;;;7327850;19;153533;-18
2022/05/28 03:49:49;;;;;;;4.75;3.63;;;;;;;;;;7326474;19;162097;-17
2022/05/28 03:52:20;;;;;;;5.00;3.63;;;;;;;;;;7326276;19;162463;-17
2022/05/28 03:54:52;;;;;;;5.15;4.15;;;;;;;;;;7327827;19;154219;-17
2022/05/28 03:57:27;;;;;;;5.43;4.15;;;;;;;;;;7327613;19;153726;-17
2022/05/28 03:59:59;;;;;;;5.32;3.65;;;;;;;;;;7328103;19;161851;-17
2022/05/28 04:02:33;;;;;;;5.63;3.60;;;;;;;;;;7332795;19;162535;-17
2022/05/28 04:05:04;;;;;;;6.05;3.85;;;;;;;;;;7334520;19;154224;-18
2022/05/28 04:07:36;;;;;;;4.93;3.75;;;;;;;;;;7334508;19;153643;-17
2022/05/28 04:10:08;;;;;;;4.53;3.30;;;;;;;;;;7334068;19;162087;-17
2022/05/28 04:12:39;;;;;;;3.78;3.42;;;;;;;;;;7332932;19;162473;-17
2022/05/28 04:15:11;;;;;;;4.47;3.45;;;;;;;;;;7334975;19;154033;-17
2022/05/28 04:17:45;;;;;;;4.43;3.67;;;;;;;;;;7334210;19;153746;-17
2022/05/28 04:20:17;;;;;;;4.97;3.80;;;;;;;;;;7333787;19;161944;-17
2022/05/28 04:22:48;;;;;;;4.45;3.58;;;;;;;;;;7332317;19;162389;-17
2022/05/28 04:25:20;;;;;;;4.32;3.45;;;;;;;;;;7334021;19;154207;-17
2022/05/28 04:27:51;;;;;;;5.67;3.67;;;;;;;;;;7333784;19;153491;-17
2022/05/28 04:30:23;;;;;;;3.83;3.42;;;;;;;;;;7333446;19;161520;-17
2022/05/28 04:32:56;;;;;;;5.80;3.70;;;;;;;;;;7333384;19;162160;-16
2022/05/28 04:35:28;;;;;;;5.35;3.63;;;;;;;;;;7333531;19;154118;-18
2022/05/28 04:37:59;;;;;;;5.13;3.53;;;;;;;;;;7333702;19;153821;-17
2022/05/28 04:40:31;;;;;;;4.75;3.67;;;;;;;;;;7332847;19;161815;-17
2022/05/28 04:43:02;;;;;;;5.07;3.97;;;;;;;;;;7330456;19;162423;-17
2022/05/28 04:45:33;;;;;;;4.75;3.72;;;;;;;;;;7333250;19;153875;-19
2022/05/28 04:48:08;;;;;;;6.53;3.75;;;;;;;;;;7331953;19;155337;-18
2022/05/28 04:50:39;;;;;;;4.85;3.55;;;;;;;;;;7332043;19;161855;-17
2022/05/28 04:53:11;;;;;;;4.70;3.78;;;;;;;;;;7332763;19;162529;-17
2022/05/28 04:55:44;;;;;;;4.25;3.47;;;;;;;;;;7333113;19;154057;-18
2022/05/28 04:58:17;;;;;;;5.00;3.45;;;;;;;;;;7333059;19;153654;-17
2022/05/28 05:00:49;;;;;;;5.03;3.28;;;;;;;;;;7332602;19;161814;-18
2022/05/28 05:03:24;;;;;;;5.00;3.65;;;;;;;;;;7330844;19;162397;-18
2022/05/28 05:05:56;;;;;;;4.13;3.65;;;;;;;;;;7332537;19;154092;-17
2022/05/28 05:08:28;;;;;;;3.88;3.10;;;;;;;;;;7332609;19;154033;-23
2022/05/28 05:11:00;;;;;;;5.55;3.25;;;;;;;;;;7330072;19;161891;-17
2022/05/28 05:13:32;;;;;;;3.95;3.30;;;;;;;;;;7330367;19;162325;-17
2022/05/28 05:16:03;;;;;;;4.70;3.25;;;;;;;;;;7332460;19;154175;-17
2022/05/28 05:18:37;;;;;;;4.03;3.58;;;;;;;;;;7336768;19;153258;-17
2022/05/28 05:21:11;;;;;;;4.25;3.05;;;;;;;;;;7331185;19;161894;-17
2022/05/28 05:23:44;;;;;;;3.95;3.40;;;;;;;;;;7330277;19;162402;-18
2022/05/28 05:26:17;;;;;;;5.43;3.78;;;;;;;;;;7332169;19;154045;-17
2022/05/28 05:28:50;;;;;;;4.03;3.20;;;;;;;;;;7332143;19;153528;-18
2022/05/28 05:31:21;;;;;;;4.17;3.60;;;;;;;;;;7331874;19;162119;-17
2022/05/28 05:33:55;;;;;;;5.22;3.88;;;;;;;;;;7331625;19;162556;-20
2022/05/28 05:36:26;;;;;;;4.28;3.42;;;;;;;;;;7332005;19;154085;-18
2022/05/28 05:38:57;;;;;;;5.82;3.88;;;;;;;;;;7331756;19;154135;-17
2022/05/28 05:41:29;;;;;;;4.65;4.07;;;;;;;;;;7330672;19;161960;-17
2022/05/28 05:44:00;;;;;;;4.15;3.65;;;;;;;;;;7329692;19;162395;-18
2022/05/28 05:46:31;;;;;;;5.18;3.83;;;;;;;;;;7331719;19;154091;-17
2022/05/28 05:49:07;;;;;;;4.22;3.83;;;;;;;;;;7331582;19;153594;-20
2022/05/28 05:51:41;;;;;;;4.80;4.20;;;;;;;;;;7331306;19;162063;-18
2022/05/28 05:54:14;;;;;;;5.40;3.75;;;;;;;;;;7331081;19;162540;-18
2022/05/28 05:56:45;;;;;;;6.50;4.45;;;;;;;;;;7331446;19;154028;-18
2022/05/28 05:59:16;;;;;;;5.00;4.05;;;;;;;;;;7330159;19;153769;-18
2022/05/28 06:01:48;;;;;;;8.45;5.05;;;;;;;;;;7328354;19;162232;-17
2022/05/28 06:04:25;;;;;;;9.77;4.43;;;;;;;;;;7328799;19;162609;-18
2022/05/28 06:06:56;;;;;;;6.82;4.30;;;;;;;;;;7331194;19;154018;-19
2022/05/28 06:09:27;;;;;;;7.95;4.28;;;;;;;;;;7330949;19;153512;-18
2022/05/28 06:12:01;;;;;;;6.65;4.32;;;;;;;;;;7329987;19;161847;-18
2022/05/28 06:14:33;;;;;;;8.05;4.63;;;;;;;;;;7330337;19;162212;-18
2022/05/28 06:17:04;;;;;;;6.03;4.25;;;;;;;;;;7330711;19;154044;-19
2022/05/28 06:19:38;;;;;;;8.30;4.28;;;;;;;;;;7332843;19;153579;-18
2022/05/28 06:22:09;;;;;;;4.82;4.25;;;;;;;;;;7328705;19;162028;-18
2022/05/28 06:24:41;;;;;;;7.45;4.07;;;;;;;;;;7326830;19;162598;-18
2022/05/28 06:27:14;;;;;;;5.13;4.13;;;;;;;;;;7330367;19;154014;-18
2022/05/28 06:29:46;;;;;;;5.10;4.05;;;;;;;;;;7330157;19;153568;-18
2022/05/28 06:32:17;;;;;;;5.28;4.22;;;;;;;;;;7329683;19;162079;-18
2022/05/28 06:34:51;;;;;;;6.38;4.40;;;;;;;;;;7329425;19;162473;-18
2022/05/28 06:37:22;;;;;;;7.38;4.32;;;;;;;;;;7329703;19;154197;-18
2022/05/28 06:39:53;;;;;;;4.40;4.00;;;;;;;;;;7329834;19;153601;-18
2022/05/28 06:42:25;;;;;;;8.32;4.65;;;;;;;;;;7329008;19;162049;-18
2022/05/28 06:44:57;;;;;;;8.43;5.20;;;;;;;;;;7327201;19;162458;-17
2022/05/28 06:47:28;;;;;;;6.25;5.10;;;;;;;;;;7329591;19;154255;-18
2022/05/28 06:52:46;;;;;;;6.55;5.03;;;;;;;;;;7328980;19;161914;-18
2022/05/28 06:55:17;;;;;;;7.90;5.53;;;;;;;;;;7327923;19;162603;-18
2022/05/28 06:57:48;;;;;;;5.72;5.13;;;;;;;;;;7328331;19;154008;-18
2022/05/28 07:00:20;;;;;;;5.30;4.85;;;;;;;;;;7329255;19;153790;-18
2022/05/28 07:02:52;;;;;;;6.30;4.60;;;;;;;;;;7328748;19;161946;-17
2022/05/28 07:05:28;;;;;;;5.18;4.68;;;;;;;;;;7326389;19;162323;-18
2022/05/28 07:08:00;;;;;;;6.78;5.45;;;;;;;;;;7328879;19;154080;-18
2022/05/28 07:10:31;;;;;;;7.38;5.00;;;;;;;;;;7328963;19;153729;-18
2022/05/28 07:13:02;;;;;;;10.40;4.25;;;;;;;;;;7327082;19;161800;-18
2022/05/28 07:15:34;;;;;;;7.07;4.63;;;;;;;;;;7328320;19;162512;-18
2022/05/28 07:18:05;;;;;;;5.95;4.47;;;;;;;;;;7328857;19;154017;-18
2022/05/28 07:20:40;;;;;;;8.10;4.70;;;;;;;;;;7328884;19;153581;-17
2022/05/28 07:23:13;;;;;;;5.70;4.40;;;;;;;;;;7328433;19;162071;-18
2022/05/28 07:25:46;;;;;;;4.47;4.05;;;;;;;;;;7325607;19;162655;-18
2022/05/28 07:28:28;;;;;;;6.95;4.72;;;;;;;;;;7331043;19;154400;-18
2022/05/28 07:31:00;;;;;;;7.18;4.43;;;;;;;;;;7328369;19;153627;-18
2022/05/28 07:33:34;;;;;;;11.90;4.60;;;;;;;;;;7327969;19;161867;-18
2022/05/28 07:36:11;;;;;;;6.60;4.05;;;;;;;;;;7333380;19;162315;-18
2022/05/28 07:38:44;;;;;;;4.85;3.92;;;;;;;;;;7335312;19;154201;-18
2022/05/28 07:41:17;;;;;;;5.55;3.90;;;;;;;;;;7335186;19;153760;-18
2022/05/28 07:43:49;;;;;;;5.60;4.45;;;;;;;;;;7334617;19;161949;-19
2022/05/28 07:46:23;;;;;;;6.18;4.18;;;;;;;;;;7332337;19;164200;-24
2022/05/28 07:48:56;;;;;;;9.25;3.85;;;;;;;;;;7334022;19;154122;-18
2022/05/28 07:51:30;;;;;;;4.68;3.60;;;;;;;;;;7334904;19;153682;-19
2022/05/28 07:54:02;;;;;;;6.25;4.10;;;;;;;;;;7334553;19;161930;-18
2022/05/28 07:56:33;;;;;;;4.38;3.78;;;;;;;;;;7334086;19;163192;-18
2022/05/28 07:59:04;;;;;;;6.07;3.90;;;;;;;;;;7333323;19;154074;-18
2022/05/28 08:01:39;;;;;;;6.25;4.28;;;;;;;;;;7334703;19;153532;-18
2022/05/28 08:04:13;;;;;;;4.70;3.80;;;;;;;;;;7334085;19;161575;-19
2022/05/28 08:06:47;;;;;;;4.07;3.67;;;;;;;;;;7334081;19;162782;-19
2022/05/28 08:09:19;;;;;;;4.95;4.03;;;;;;;;;;7333306;19;154310;-18
2022/05/28 08:11:50;;;;;;;6.57;4.18;;;;;;;;;;7334675;19;153578;-18
2022/05/28 08:14:21;;;;;;;4.75;3.90;;;;;;;;;;7331232;19;161848;-19
2022/05/28 08:16:53;;;;;;;8.30;3.55;;;;;;;;;;7333452;19;162382;-19
2022/05/28 08:19:24;;;;;;;3.58;3.10;;;;;;;;;;7333578;19;154044;-19
2022/05/28 08:24:41;;;;;;;5.78;3.60;;;;;;;;;;7332887;19;161848;-18
2022/05/28 08:27:13;;;;;;;6.35;3.20;;;;;;;;;;7333081;19;162189;-19
2022/05/28 08:29:44;;;;;;;5.07;3.83;;;;;;;;;;7333521;19;154321;-18
2022/05/28 08:32:18;;;;;;;4.60;3.47;;;;;;;;;;7333420;19;153558;-19
2022/05/28 08:34:49;;;;;;;5.25;3.35;;;;;;;;;;7333273;19;161942;-23
2022/05/28 08:37:23;;;;;;;4.07;3.33;;;;;;;;;;7333122;19;162411;-19
2022/05/28 08:39:54;;;;;;;3.30;3.05;;;;;;;;;;7333389;19;154200;-18
2022/05/28 08:42:29;;;;;;;6.88;3.25;;;;;;;;;;7333431;19;153292;-18
2022/05/28 08:45:05;;;;;;;4.13;3.70;;;;;;;;;;7332237;19;161826;-19
2022/05/28 08:47:40;;;;;;;3.50;2.75;;;;;;;;;;7332580;19;162581;-19
2022/05/28 08:50:13;;;;;;;3.45;3.10;;;;;;;;;;7333055;19;154413;-16
2022/05/28 08:52:51;;;;;;;3.40;3.00;;;;;;;;;;7332766;19;153507;-17
2022/05/28 08:55:26;;;;;;;4.25;3.03;;;;;;;;;;7332450;19;162101;-18
2022/05/28 08:58:01;;;;;;;5.30;3.22;;;;;;;;;;7332555;19;162906;-18
2022/05/28 09:00:40;;;;;;;6.75;3.53;;;;;;;;;;7332821;19;154290;-18
2022/05/28 09:03:14;;;;;;;6.15;3.40;;;;;;;;;;7332624;19;153461;-18
2022/05/28 09:05:51;;;;;;;5.05;3.53;;;;;;;;;;7330997;19;161986;-18
2022/05/28 09:08:41;;;;;;;5.57;3.08;;;;;;;;;;7331079;19;162620;-18
2022/05/28 09:11:18;;;;;;;4.85;3.13;;;;;;;;;;7331090;19;154182;-18
2022/05/28 09:13:51;;;;;;;4.03;3.10;;;;;;;;;;7330540;19;153856;-19
2022/05/28 09:16:28;;;;;;;3.80;2.92;;;;;;;;;;7331741;19;161837;-18
2022/05/28 09:19:05;;;;;;;4.30;2.53;;;;;;;;;;7331677;19;162398;-18
2022/05/28 09:21:37;;;;;;;4.63;3.17;;;;;;;;;;7332056;19;154229;-18
2022/05/28 09:24:18;;;;;;;3.83;2.70;;;;;;;;;;7332263;19;153540;-18
2022/05/28 09:27:00;;;;;;;3.28;3.03;;;;;;;;;;7329140;19;163290;-18
2022/05/28 09:29:54;;;;;;;3.83;3.47;;;;;;;;;;7331804;19;162401;-18
2022/05/28 09:32:33;;;;;;;5.38;2.67;;;;;;;;;;7330903;19;154139;-18
2022/05/28 09:35:12;;;;;;;4.13;3.10;;;;;;;;;;7331910;19;153763;-18
2022/05/28 09:37:53;;;;;;;3.55;3.13;;;;;;;;;;7331572;19;161821;-18
2022/05/28 09:40:35;;;;;;;4.03;3.05;;;;;;;;;;7331548;19;162460;-18
2022/05/28 09:43:35;;;;;;;6.35;3.42;;;;;;;;;;7330491;19;154153;-19
2022/05/28 09:46:14;;;;;;;5.50;3.10;;;;;;;;;;7330780;19;153538;-18
2022/05/28 09:48:47;;;;;;;4.90;3.30;;;;;;;;;;7331205;19;161859;-18
2022/05/28 09:51:25;;;;;;;3.33;2.63;;;;;;;;;;7331085;19;162308;-19
2022/05/28 09:56:53;;;;;;;4.75;3.20;;;;;;;;;;7330846;19;153863;-19
2022/05/28 09:59:29;;;;;;;3.65;2.58;;;;;;;;;;7330397;19;161695;-19
2022/05/28 10:02:07;;;;;;;3.78;2.88;;;;;;;;;;7330879;19;162394;-19
2022/05/28 10:04:52;;;;;;;3.50;2.83;;;;;;;;;;7331325;19;154131;-19
2022/05/28 10:07:32;;;;;;;3.53;2.90;;;;;;;;;;7328810;19;153292;-16
2022/05/28 10:10:03;;;;;;;3.92;2.75;;;;;;;;;;7330750;19;161782;-17
2022/05/28 10:12:37;;;;;;;6.53;2.90;;;;;;;;;;7329446;19;162582;-17
2022/05/28 10:15:13;;;;;;;5.47;3.10;;;;;;;;;;7331077;19;154194;-17
2022/05/28 10:17:46;;;;;;;4.47;2.88;;;;;;;;;;7330807;19;153580;-17
2022/05/28 10:20:21;;;;;;;3.83;2.72;;;;;;;;;;7330330;19;162144;-18
2022/05/28 10:22:54;;;;;;;4.90;3.33;;;;;;;;;;7330127;19;162673;-17
2022/05/28 10:25:37;;;;;;;4.25;2.85;;;;;;;;;;7330694;19;154102;-17
2022/05/28 10:28:13;;;;;;;7.40;2.80;;;;;;;;;;7327533;19;153788;-18
2022/05/28 10:30:46;;;;;;;7.55;2.78;;;;;;;;;;7332693;19;161825;-17
2022/05/28 10:33:21;;;;;;;2.85;2.47;;;;;;;;;;7329638;19;162452;-18
2022/05/28 10:35:53;;;;;;;3.22;2.30;;;;;;;;;;7330129;19;154229;-17
2022/05/28 10:38:28;;;;;;;4.10;2.83;;;;;;;;;;7329945;19;153526;-17
2022/05/28 10:41:02;;;;;;;3.03;2.58;;;;;;;;;;7329347;19;162883;-18
2022/05/28 10:43:39;;;;;;;4.07;2.90;;;;;;;;;;7328196;19;163041;-18
2022/05/28 10:46:19;;;;;;;3.17;2.40;;;;;;;;;;7329529;19;154021;-18
2022/05/28 10:49:11;;;;;;;3.67;2.55;;;;;;;;;;7329538;19;153476;-18
2022/05/28 10:51:56;;;;;;;4.68;2.65;;;;;;;;;;7328929;19;161878;-17
2022/05/28 10:54:44;;;;;;;3.85;2.58;;;;;;;;;;7329239;19;162359;-17
2022/05/28 10:57:44;;;;;;;5.38;2.78;;;;;;;;;;7329579;19;154058;-17
2022/05/28 11:00:22;;;;;;;3.45;2.40;;;;;;;;;;7328123;19;154309;-18
2022/05/28 11:03:10;;;;;;;3.50;2.50;;;;;;;;;;7328882;19;161865;-19
2022/05/28 11:06:08;;;;;;;3.38;2.30;;;;;;;;;;7328875;19;162407;-19
2022/05/28 11:08:47;;;;;;;5.82;3.15;;;;;;;;;;7330704;19;154043;-18
2022/05/28 11:11:33;;;;;;;4.57;2.80;;;;;;;;;;7335871;19;153596;-18
2022/05/28 11:14:17;;;;;;;4.93;3.10;;;;;;;;;;7333484;19;162097;-18
2022/05/28 11:17:21;;;;;;;2.70;2.38;;;;;;;;;;7335409;19;163058;-18
2022/05/28 11:20:13;;;;;;;3.90;2.65;;;;;;;;;;7335943;19;154052;-18
2022/05/28 11:22:58;;;;;;;3.20;2.42;;;;;;;;;;7335825;19;153611;-19
2022/05/28 11:25:43;;;;;;;3.45;2.28;;;;;;;;;;7335144;19;161790;-19
2022/05/28 11:28:31;;;;;;;3.33;2.13;;;;;;;;;;7332109;19;162807;-19
2022/05/28 11:31:12;;;;;;;2.78;2.58;;;;;;;;;;7334309;19;154239;-27
2022/05/28 11:33:50;;;;;;;4.28;2.38;;;;;;;;;;7337299;19;153559;-20
2022/05/28 11:36:29;;;;;;;3.38;2.17;;;;;;;;;;7335261;19;162140;-19
2022/05/28 11:39:06;;;;;;;4.68;2.55;;;;;;;;;;7335058;19;163223;-18
2022/05/28 11:41:42;;;;;;;2.45;2.10;;;;;;;;;;7335264;19;154070;-18
2022/05/28 11:44:21;;;;;;;2.67;2.20;;;;;;;;;;7335246;19;153551;-18
2022/05/28 11:47:00;;;;;;;2.85;2.45;;;;;;;;;;7334585;19;161822;-18
2022/05/28 11:52:33;;;;;;;3.85;2.15;;;;;;;;;;7335237;19;154101;-18
2022/05/28 11:55:11;;;;;;;4.03;2.35;;;;;;;;;;7335117;19;153530;-18
2022/05/28 11:57:48;;;;;;;4.38;2.30;;;;;;;;;;7334526;19;161752;-19
2022/05/28 12:00:22;;;;;;;2.45;2.15;;;;;;;;;;7333368;19;162467;-18
2022/05/28 12:02:58;;;;;;;3.25;2.35;;;;;;;;;;7335272;19;154148;-18
2022/05/28 12:05:44;;;;;;;2.70;2.47;;;;;;;;;;7335095;19;153853;-18
2022/05/28 12:08:27;;;;;;;2.33;1.90;;;;;;;;;;7332895;19;162655;-19
2022/05/28 12:11:03;;;;;;;2.35;2.15;;;;;;;;;;7334660;19;162381;-18
2022/05/28 12:13:38;;;;;;;2.05;1.90;;;;;;;;;;7333236;19;154102;-18
2022/05/28 12:16:27;;;;;;;5.25;2.47;;;;;;;;;;7334578;19;154197;-23
2022/05/28 12:19:02;;;;;;;5.40;2.70;;;;;;;;;;7333319;19;161982;-19
2022/05/28 12:21:38;;;;;;;2.75;2.00;;;;;;;;;;7332655;19;162543;-18
2022/05/28 12:24:12;;;;;;;3.40;2.10;;;;;;;;;;7334508;19;154028;-19
2022/05/28 12:26:53;;;;;;;4.07;2.47;;;;;;;;;;7334244;19;153523;-18
2022/05/28 12:29:38;;;;;;;3.42;2.63;;;;;;;;;;7330668;19;161893;-18
2022/05/28 12:32:23;;;;;;;4.93;2.20;;;;;;;;;;7333959;19;162323;-18
2022/05/28 12:34:58;;;;;;;2.90;2.22;;;;;;;;;;7333386;19;154109;-18
2022/05/28 12:37:50;;;;;;;2.67;2.03;;;;;;;;;;7332643;19;153567;-18
2022/05/28 12:40:32;;;;;;;5.38;2.42;;;;;;;;;;7333649;19;162002;-18
2022/05/28 12:43:14;;;;;;;2.73;2.10;;;;;;;;;;7332588;19;162400;-18
2022/05/28 12:45:48;;;;;;;5.82;2.42;;;;;;;;;;7332772;19;154177;-18
2022/05/28 12:48:26;;;;;;;5.18;2.50;;;;;;;;;;7332540;19;153594;-18
2022/05/28 12:51:15;;;;;;;2.80;2.50;;;;;;;;;;7333439;19;161980;-18
2022/05/28 12:53:58;;;;;;;2.92;2.17;;;;;;;;;;7333335;19;162358;-18
2022/05/28 12:56:41;;;;;;;;;;;;;;;;;;7333994;19;154117;-18
2022/05/28 12:59:15;;;;;;;2.45;2.13;;;;;;;;;;7333667;19;153518;-18
2022/05/28 13:01:57;;;;;;;4.80;2.60;;;;;;;;;;7333137;19;161869;-17
2022/05/28 13:04:32;;;;;;;2.53;2.28;;;;;;;;;;7332848;19;162445;-18
2022/05/28 13:07:06;;;;;;;4.55;2.17;;;;;;;;;;7333314;19;154001;-18
2022/05/28 13:09:42;;;;;;;2.90;2.38;;;;;;;;;;7330889;19;153774;-18
2022/05/28 13:12:25;;;;;;;2.63;2.20;;;;;;;;;;7332487;19;161867;-18
2022/05/28 13:15:11;;;;;;;2.85;2.20;;;;;;;;;;7332325;19;162396;-17
2022/05/28 13:18:15;;;;;;;2.80;2.20;;;;;;;;;;7332844;19;154084;-18
2022/05/28 13:21:04;;;;;;;2.40;2.08;;;;;;;;;;7332770;19;153545;-18
2022/05/28 13:23:50;;;;;;;4.55;2.38;;;;;;;;;;7331086;19;162095;-18
2022/05/28 13:26:42;;;;;;;3.20;1.92;;;;;;;;;;7332355;19;162358;-18
2022/05/28 13:29:33;;;;;;;3.85;1.98;;;;;;;;;;7329701;19;154124;-17
2022/05/28 13:32:10;;;;;;;3.65;2.28;;;;;;;;;;7330110;19;153616;-18
2022/05/28 13:34:41;;;;;;;2.88;2.40;;;;;;;;;;7331975;19;162004;-18
2022/05/28 13:37:20;;;;;;;3.05;2.33;;;;;;;;;;7333076;19;162917;-18
2022/05/28 13:39:52;;;;;;;2.60;1.95;;;;;;;;;;7332162;19;154268;-18
2022/05/28 13:42:28;;;;;;;4.70;2.53;;;;;;;;;;7332194;19;154438;-18
2022/05/28 13:45:00;;;;;;;2.42;2.22;;;;;;;;;;7331578;19;161848;-18
2022/05/28 13:47:35;;;;;;;2.83;1.80;;;;;;;;;;7331749;19;162427;-18
2022/05/28 13:50:12;;;;;;;2.92;2.17;;;;;;;;;;7329636;19;154174;-24
2022/05/28 13:52:48;;;;;;;2.40;1.88;;;;;;;;;;7331900;19;153514;-18
2022/05/28 13:55:24;;;;;;;2.17;1.98;;;;;;;;;;7331456;19;161786;-18
2022/05/28 13:57:58;;;;;;;2.78;2.08;;;;;;;;;;7331162;19;162455;-18
2022/05/28 14:00:32;;;;;;;3.90;2.35;;;;;;;;;;7331676;19;154023;-18
2022/05/28 14:03:06;;;;;;;2.75;2.20;;;;;;;;;;7331468;19;153726;-18
2022/05/28 14:05:43;;;;;;;3.63;2.20;;;;;;;;;;7329872;19;162127;-19
2022/05/28 14:08:18;;;;;;;2.10;2.00;;;;;;;;;;7330636;19;162434;-19
2022/05/28 14:10:50;;;;;;;2.47;1.92;;;;;;;;;;7331280;19;154242;-20
2022/05/28 14:13:29;;;;;;;2.00;1.88;;;;;;;;;;7329526;19;154007;-18
2022/05/28 14:16:01;;;;;;;4.30;2.20;;;;;;;;;;7330689;19;162555;-19
2022/05/28 14:18:35;;;;;;;2.20;2.00;;;;;;;;;;7330428;19;162518;-19
2022/05/28 14:21:09;;;;;;;3.47;2.13;;;;;;;;;;7331196;19;154151;-19
2022/05/28 14:23:46;;;;;;;2.35;2.13;;;;;;;;;;7330897;19;153766;-19
2022/05/28 14:26:20;;;;;;;3.42;2.45;;;;;;;;;;7332054;19;161809;-19
2022/05/28 14:28:57;;;;;;;2.72;2.03;;;;;;;;;;7330049;19;162354;-19
2022/05/28 14:31:29;;;;;;;3.13;2.35;;;;;;;;;;7330490;19;154136;-18
2022/05/28 14:34:01;;;;;;;4.30;1.90;;;;;;;;;;7329419;19;153654;-18
2022/05/28 14:36:37;;;;;;;2.30;2.10;;;;;;;;;;7330112;19;161969;-19
2022/05/28 14:39:13;;;;;;;2.67;1.80;;;;;;;;;;7328869;19;162622;-19
2022/05/28 14:41:50;;;;;;;3.70;2.47;;;;;;;;;;7330569;19;154059;-18
2022/05/28 14:44:28;;;;;;;4.13;2.38;;;;;;;;;;7329310;19;153704;-19
2022/05/28 14:46:59;;;;;;;4.03;2.00;;;;;;;;;;7329942;19;161735;-18
2022/05/28 14:49:34;;;;;;;2.70;2.20;;;;;;;;;;7328648;19;162527;-19
2022/05/28 14:52:09;;;;;;;4.20;2.35;;;;;;;;;;7329898;19;154165;-18
2022/05/28 14:54:52;;;;;;;2.88;2.17;;;;;;;;;;7333327;19;153561;-18
2022/05/28 14:57:27;;;;;;;4.78;2.60;;;;;;;;;;7328398;19;161926;-18
2022/05/28 15:00:03;;;;;;;2.40;2.20;;;;;;;;;;7329215;19;162615;-18
2022/05/28 15:02:36;;;;;;;3.75;2.20;;;;;;;;;;7329492;19;154063;-18
2022/05/28 15:05:11;;;;;;;6.97;2.67;;;;;;;;;;7329489;19;153776;-18
2022/05/28 15:07:50;;;;;;;5.93;2.10;;;;;;;;;;7329009;19;161880;-19
2022/05/28 15:10:25;;;;;;;3.15;2.38;;;;;;;;;;7327168;19;162544;-19
2022/05/28 15:12:56;;;;;;;2.63;2.13;;;;;;;;;;7328457;19;154185;-18
2022/05/28 15:15:30;;;;;;;3.05;2.20;;;;;;;;;;7329212;19;153551;-18
2022/05/28 15:18:02;;;;;;;3.60;2.10;;;;;;;;;;7328682;19;162063;-18
2022/05/28 15:20:34;;;;;;;4.40;2.50;;;;;;;;;;7328780;19;163711;-18
2022/05/28 15:23:06;;;;;;;3.97;2.22;;;;;;;;;;7327544;19;154150;-18
2022/05/28 15:25:39;;;;;;;2.85;2.13;;;;;;;;;;7329069;19;153298;-17
2022/05/28 15:28:11;;;;;;;2.50;2.30;;;;;;;;;;7328608;19;161772;-17